createdAt,value
2023-02-01T00:01:25.527Z,100529.28
2023-02-01T00:03:54.004Z,100530.97
2023-02-01T00:06:22.282Z,100537.47
2023-02-01T00:08:50.560Z,100531.69
2023-02-01T00:11:18.877Z,100523.91
2023-02-01T00:13:47.013Z,100518.00
2023-02-01T00:16:19.588Z,100525.38
2023-02-01T00:18:49.684Z,100527.53
2023-02-01T00:21:20.232Z,100522.03
2023-02-01T00:23:48.848Z,100526.50
2023-02-01T00:26:20.581Z,100523.06
2023-02-01T00:28:48.768Z,100520.41
2023-02-01T00:31:18.323Z,100527.41
2023-02-01T00:33:50.147Z,100524.63
2023-02-01T00:36:19.242Z,100527.84
2023-02-01T00:38:47.485Z,100526.00
2023-02-01T00:41:18.096Z,100530.22
2023-02-01T00:43:47.510Z,100523.91
2023-02-01T00:46:19.586Z,100516.34
2023-02-01T00:48:47.942Z,100524.22
2023-02-01T00:51:18.356Z,100519.78
2023-02-01T00:53:47.288Z,100523.41
2023-02-01T00:56:15.521Z,100525.03
2023-02-01T00:58:45.920Z,100526.91
2023-02-01T01:01:19.763Z,100523.28
2023-02-01T01:03:51.718Z,100516.84
2023-02-01T01:06:24.926Z,100492.19
2023-02-01T01:08:54.291Z,100476.84
2023-02-01T01:11:26.309Z,100467.00
2023-02-01T01:13:56.356Z,100453.63
2023-02-01T01:16:28.730Z,100458.81
2023-02-01T01:18:58.385Z,100454.22
2023-02-01T01:21:27.518Z,100452.59
2023-02-01T01:23:55.701Z,100459.88
2023-02-01T01:26:26.051Z,100465.97
2023-02-01T01:28:56.337Z,100467.53
2023-02-01T01:31:26.672Z,100474.03
2023-02-01T01:33:57.517Z,100486.50
2023-02-01T01:36:26.899Z,100489.38
2023-02-01T01:38:55.581Z,100504.63
2023-02-01T01:41:27.044Z,100507.66
2023-02-01T01:44:00.224Z,100503.06
2023-02-01T01:46:33.740Z,100498.72
2023-02-01T01:49:09.909Z,100498.28
2023-02-01T01:51:44.534Z,100489.88
2023-02-01T01:54:18.244Z,100469.91
2023-02-01T01:56:51.829Z,100468.56
2023-02-01T01:59:21.672Z,100466.69
2023-02-01T02:01:51.560Z,100468.34
2023-02-01T02:04:20.809Z,100466.19
2023-02-01T02:06:56.654Z,100467.94
2023-02-01T02:09:25.043Z,100477.25
2023-02-01T02:11:53.391Z,100463.16
2023-02-01T02:14:24.776Z,100458.69
2023-02-01T02:17:13.266Z,100462.00
2023-02-01T02:20:26.088Z,100465.44
2023-02-01T02:23:53.811Z,100462.00
2023-02-01T02:26:37.537Z,100465.84
2023-02-01T02:29:55.829Z,100453.81
2023-02-01T02:33:11.994Z,100453.38
2023-02-01T02:35:49.146Z,100447.69
2023-02-01T02:38:28.907Z,100447.41
2023-02-01T02:41:07.844Z,100457.66
2023-02-01T02:44:05.357Z,100446.44
2023-02-01T02:46:54.887Z,100451.00
2023-02-01T02:49:30.934Z,100453.00
2023-02-01T02:52:26.015Z,100459.72
2023-02-01T02:54:56.367Z,100446.16
2023-02-01T02:57:47.809Z,100453.00
2023-02-01T03:00:38.134Z,100453.41
2023-02-01T03:03:25.250Z,100453.41
2023-02-01T03:05:53.929Z,100456.22
2023-02-01T03:08:27.150Z,100449.97
2023-02-01T03:11:02.012Z,100454.66
2023-02-01T03:13:39.306Z,100438.56
2023-02-01T03:16:15.396Z,100440.41
2023-02-01T03:18:52.164Z,100445.59
2023-02-01T03:21:24.539Z,100434.31
2023-02-01T03:23:59.129Z,100449.88
2023-02-01T03:26:29.944Z,100453.22
2023-02-01T03:29:04.492Z,100441.81
2023-02-01T03:31:34.092Z,100446.16
2023-02-01T03:34:03.057Z,100448.44
2023-02-01T03:36:39.448Z,100448.75
2023-02-01T03:39:18.660Z,100443.34
2023-02-01T03:41:51.494Z,100435.56
2023-02-01T03:44:26.923Z,100439.44
2023-02-01T03:47:00.922Z,100433.19
2023-02-01T03:49:32.893Z,100428.66
2023-02-01T03:52:02.374Z,100435.78
2023-02-01T03:54:33.370Z,100421.41
2023-02-01T03:57:06.990Z,100422.97
2023-02-01T03:59:35.182Z,100404.19
2023-02-01T04:02:03.623Z,100431.03
2023-02-01T04:04:32.156Z,100426.19
2023-02-01T04:07:00.391Z,100421.91
2023-02-01T04:09:28.551Z,100423.25
2023-02-01T04:11:58.189Z,100423.25
2023-02-01T04:14:26.327Z,100428.13
2023-02-01T04:16:55.111Z,100436.53
2023-02-01T04:19:23.315Z,100444.09
2023-02-01T04:21:51.560Z,100455.78
2023-02-01T04:24:19.792Z,100447.94
2023-02-01T04:26:48.032Z,100460.97
2023-02-01T04:29:17.531Z,100452.75
2023-02-01T04:31:47.243Z,100456.50
2023-02-01T04:34:15.482Z,100439.09
2023-02-01T04:36:45.777Z,100449.47
2023-02-01T04:39:15.512Z,100442.63
2023-02-01T04:41:43.639Z,100439.72
2023-02-01T04:44:17.715Z,100447.38
2023-02-01T04:46:47.571Z,100458.13
2023-02-01T04:49:17.020Z,100446.13
2023-02-01T04:51:45.536Z,100436.81
2023-02-01T04:54:13.710Z,100442.38
2023-02-01T04:56:42.189Z,100442.00
2023-02-01T04:59:12.376Z,100432.44
2023-02-01T05:01:41.875Z,100426.75
2023-02-01T05:04:10.129Z,100430.59
2023-02-01T05:06:38.315Z,100418.47
2023-02-01T05:09:06.505Z,100416.09
2023-02-01T05:11:52.126Z,100403.34
2023-02-01T05:14:20.315Z,100399.53
2023-02-01T05:16:49.805Z,100400.97
2023-02-01T05:19:17.929Z,100395.38
2023-02-01T05:21:46.113Z,100410.69
2023-02-01T05:24:17.354Z,100422.41
2023-02-01T05:26:45.642Z,100416.50
2023-02-01T05:29:14.760Z,100416.38
2023-02-01T05:31:43.467Z,100409.94
2023-02-01T05:34:13.159Z,100414.59
2023-02-01T05:36:41.598Z,100416.16
2023-02-01T05:39:11.261Z,100410.16
2023-02-01T05:41:39.763Z,100420.09
2023-02-01T05:44:08.787Z,100423.50
2023-02-01T05:46:37.432Z,100430.72
2023-02-01T05:49:06.305Z,100439.28
2023-02-01T05:51:35.829Z,100431.97
2023-02-01T05:54:04.031Z,100425.31
2023-02-01T05:56:32.225Z,100423.47
2023-02-01T06:01:28.350Z,100423.28
2023-02-01T06:03:56.546Z,100421.50
2023-02-01T06:06:24.738Z,100419.03
2023-02-01T06:08:54.257Z,100416.84
2023-02-01T06:11:32.467Z,100418.72
2023-02-01T06:14:01.346Z,100418.72
2023-02-01T06:16:29.919Z,100415.75
2023-02-01T06:18:59.107Z,100418.91
2023-02-01T06:21:27.477Z,100414.72
2023-02-01T06:23:58.709Z,100414.66
2023-02-01T06:26:27.222Z,100427.34
2023-02-01T06:28:56.156Z,100433.69
2023-02-01T06:31:26.152Z,100442.97
2023-02-01T06:33:54.499Z,100424.75
2023-02-01T06:36:22.825Z,100437.25
2023-02-01T06:38:51.143Z,100442.72
2023-02-01T06:41:21.459Z,100439.63
2023-02-01T06:43:49.717Z,100431.69
2023-02-01T06:46:17.937Z,100436.84
2023-02-01T06:48:46.907Z,100445.00
2023-02-01T06:51:23.576Z,100449.97
2023-02-01T06:53:51.838Z,100456.09
2023-02-01T06:56:21.604Z,100462.28
2023-02-01T06:58:50.497Z,100460.72
2023-02-01T07:01:19.075Z,100465.69
2023-02-01T07:03:51.807Z,100466.84
2023-02-01T07:06:20.924Z,100458.97
2023-02-01T07:08:49.359Z,100462.84
2023-02-01T07:11:21.013Z,100460.91
2023-02-01T07:13:49.236Z,100460.91
2023-02-01T07:16:20.495Z,100474.84
2023-02-01T07:18:49.871Z,100475.78
2023-02-01T07:21:18.254Z,100472.91
2023-02-01T07:23:46.597Z,100483.72
2023-02-01T07:26:17.409Z,100477.19
2023-02-01T07:28:47.637Z,100477.06
2023-02-01T07:31:19.937Z,100475.31
2023-02-01T07:33:48.865Z,100475.38
2023-02-01T07:36:18.495Z,100485.53
2023-02-01T07:38:47.810Z,100486.50
2023-02-01T07:41:17.064Z,100469.09
2023-02-01T07:43:47.071Z,100483.22
2023-02-01T07:46:16.212Z,100491.56
2023-02-01T07:48:44.582Z,100477.97
2023-02-01T07:51:14.973Z,100456.63
2023-02-01T07:53:44.527Z,100462.53
2023-02-01T07:56:16.207Z,100460.50
2023-02-01T07:58:49.453Z,100483.22
2023-02-01T08:01:21.274Z,100457.09
2023-02-01T08:03:50.078Z,100459.41
2023-02-01T08:06:20.380Z,100460.44
2023-02-01T08:08:48.703Z,100469.75
2023-02-01T08:11:18.229Z,100467.06
2023-02-01T08:13:48.387Z,100460.31
2023-02-01T08:16:18.834Z,100460.91
2023-02-01T08:18:47.695Z,100481.50
2023-02-01T08:21:19.517Z,100486.09
2023-02-01T08:23:48.024Z,100491.28
2023-02-01T08:26:21.619Z,100480.81
2023-02-01T08:28:54.305Z,100490.84
2023-02-01T08:31:23.915Z,100486.50
2023-02-01T08:33:56.971Z,100497.56
2023-02-01T08:36:26.870Z,100487.56
2023-02-01T08:38:55.542Z,100489.69
2023-02-01T08:41:26.978Z,100504.16
2023-02-01T08:43:57.239Z,100511.66
2023-02-01T08:46:25.816Z,100500.34
2023-02-01T08:48:54.392Z,100518.91
2023-02-01T08:51:24.668Z,100521.88
2023-02-01T08:53:53.535Z,100517.50
2023-02-01T08:56:21.947Z,100522.66
2023-02-01T08:58:50.130Z,100527.66
2023-02-01T09:01:20.202Z,100527.19
2023-02-01T09:03:48.483Z,100530.41
2023-02-01T09:06:17.850Z,100521.50
2023-02-01T09:08:46.666Z,100521.69
2023-02-01T09:11:18.394Z,100535.38
2023-02-01T09:13:47.215Z,100533.41
2023-02-01T09:16:15.809Z,100510.50
2023-02-01T09:18:56.131Z,100510.31
2023-02-01T09:21:30.451Z,100525.25
2023-02-01T09:23:58.863Z,100529.41
2023-02-01T09:40:27.449Z,100510.94
2023-02-01T09:43:17.150Z,100514.63
2023-02-01T09:45:57.792Z,100505.44
2023-02-01T09:48:33.553Z,100503.75
2023-02-01T09:51:04.632Z,100491.63
2023-02-01T09:53:38.391Z,100502.03
2023-02-01T09:56:14.324Z,100497.97
2023-02-01T09:58:47.128Z,100484.72
2023-02-01T10:01:23.920Z,100490.75
2023-02-01T10:03:58.343Z,100494.88
2023-02-01T10:06:51.951Z,100469.81
2023-02-01T10:09:46.191Z,100483.28
2023-02-01T10:13:11.440Z,100485.56
2023-02-01T10:16:05.193Z,100475.09
2023-02-01T10:18:53.817Z,100489.91
2023-02-01T10:21:42.448Z,100464.41
2023-02-01T10:24:43.633Z,100468.78
2023-02-01T10:27:21.949Z,100488.56
2023-02-01T10:29:56.773Z,100489.81
2023-02-01T10:32:37.522Z,100488.47
2023-02-01T10:35:16.894Z,100481.91
2023-02-01T10:37:47.373Z,100483.06
2023-02-01T10:40:22.822Z,100489.28
2023-02-01T10:42:56.633Z,100494.06
2023-02-01T10:45:29.193Z,100495.22
2023-02-01T10:48:00.490Z,100491.88
2023-02-01T10:50:39.278Z,100490.75
2023-02-01T10:53:14.255Z,100494.34
2023-02-01T10:55:50.357Z,100480.16
2023-02-01T10:58:22.605Z,100479.03
2023-02-01T11:00:55.778Z,100468.88
2023-02-01T11:03:38.669Z,100470.19
2023-02-01T11:06:13.512Z,100467.19
2023-02-01T11:08:50.802Z,100456.09
2023-02-01T11:11:20.361Z,100457.03
2023-02-01T11:13:59.687Z,100455.97
2023-02-01T11:16:37.069Z,100449.03
2023-02-01T11:19:06.824Z,100448.59
2023-02-01T11:21:36.816Z,100429.97
2023-02-01T11:24:10.250Z,100431.28
2023-02-01T11:26:43.257Z,100444.53
2023-02-01T11:29:19.418Z,100444.63
2023-02-01T11:31:48.482Z,100444.94
2023-02-01T11:34:20.645Z,100436.28
2023-02-01T11:36:51.389Z,100421.56
2023-02-01T11:39:28.759Z,100414.06
2023-02-01T11:42:07.905Z,100423.44
2023-02-01T11:44:40.612Z,100421.59
2023-02-01T11:47:23.317Z,100409.84
2023-02-01T11:49:53.922Z,100417.59
2023-02-01T11:52:44.121Z,100405.75
2023-02-01T11:55:51.747Z,100414.22
2023-02-01T11:58:38.675Z,100400.09
2023-02-01T12:01:43.376Z,100402.63
2023-02-01T12:05:01.227Z,100393.13
2023-02-01T12:07:51.069Z,100394.78
2023-02-01T12:10:32.315Z,100386.59
2023-02-01T12:13:14.410Z,100400.25
2023-02-01T12:16:02.746Z,100397.53
2023-02-01T12:19:18.400Z,100402.22
2023-02-01T12:22:09.729Z,100412.00
2023-02-01T12:24:57.777Z,100397.50
2023-02-01T12:28:26.738Z,100406.56
2023-02-01T12:31:29.601Z,100394.22
2023-02-01T12:34:26.209Z,100397.28
2023-02-01T12:37:10.289Z,100409.19
2023-02-01T12:39:46.452Z,100389.94
2023-02-01T12:42:20.465Z,100391.63
2023-02-01T12:44:57.421Z,100379.47
2023-02-01T12:47:34.001Z,100389.88
2023-02-01T12:50:10.268Z,100385.63
2023-02-01T12:52:45.784Z,100380.19
2023-02-01T12:55:24.307Z,100374.16
2023-02-01T12:57:57.654Z,100378.44
2023-02-01T13:00:34.590Z,100378.53
2023-02-01T13:03:14.092Z,100384.91
2023-02-01T13:06:00.650Z,100385.50
2023-02-01T13:08:45.983Z,100365.53
2023-02-01T13:11:20.253Z,100371.56
2023-02-01T13:14:01.243Z,100366.16
2023-02-01T13:16:34.197Z,100368.88
2023-02-01T13:19:14.727Z,100372.16
2023-02-01T13:21:50.702Z,100360.56
2023-02-01T13:24:34.515Z,100353.78
2023-02-01T13:27:03.473Z,100372.31
2023-02-01T13:29:33.235Z,100362.31
2023-02-01T13:33:54.447Z,100371.16
2023-02-01T13:36:28.882Z,100360.03
2023-02-01T13:39:46.017Z,100353.78
2023-02-01T13:42:24.685Z,100353.78
2023-02-01T13:44:58.772Z,100359.13
2023-02-01T13:47:31.976Z,100355.59
2023-02-01T13:50:06.375Z,100350.94
2023-02-01T13:52:44.274Z,100346.75
2023-02-01T13:55:32.877Z,100346.13
2023-02-01T13:58:19.564Z,100344.84
2023-02-01T14:00:49.243Z,100347.34
2023-02-01T14:03:20.880Z,100351.69
2023-02-01T14:06:41.774Z,100352.53
2023-02-01T14:09:20.852Z,100355.84
2023-02-01T14:11:56.096Z,100370.72
2023-02-01T14:14:47.712Z,100360.78
2023-02-01T14:17:37.988Z,100347.09
2023-02-01T14:20:54.212Z,100358.56
2023-02-01T14:23:31.449Z,100356.66
2023-02-01T14:26:21.582Z,100363.63
2023-02-01T14:29:04.356Z,100353.59
2023-02-01T14:32:03.599Z,100357.03
2023-02-01T14:34:53.555Z,100358.56
2023-02-01T14:37:30.144Z,100374.75
2023-02-01T14:40:03.381Z,100363.31
2023-02-01T14:42:41.138Z,100357.88
2023-02-01T14:45:52.862Z,100374.53
2023-02-01T14:48:49.228Z,100363.91
2023-02-01T14:51:19.589Z,100373.81
2023-02-01T14:53:48.257Z,100364.03
2023-02-01T14:56:21.380Z,100343.00
2023-02-01T14:58:59.145Z,100368.16
2023-02-01T15:01:32.521Z,100353.53
2023-02-01T15:04:06.733Z,100376.19
2023-02-01T15:06:40.825Z,100366.38
2023-02-01T15:09:14.589Z,100360.38
2023-02-01T15:12:05.001Z,100369.59
2023-02-01T15:14:35.913Z,100371.72
2023-02-01T15:17:20.581Z,100363.78
2023-02-01T15:19:56.033Z,100362.63
2023-02-01T15:22:24.420Z,100372.19
2023-02-01T15:24:55.831Z,100374.09
2023-02-01T15:27:24.279Z,100367.69
2023-02-01T15:29:52.599Z,100376.06
2023-02-01T15:32:34.754Z,100375.03
2023-02-01T15:35:04.271Z,100372.31
2023-02-01T15:37:32.703Z,100384.22
2023-02-01T15:40:22.852Z,100389.28
2023-02-01T15:42:55.933Z,100393.16
2023-02-01T15:45:28.750Z,100397.97
2023-02-01T15:48:00.824Z,100404.00
2023-02-01T15:50:32.556Z,100400.91
2023-02-01T15:53:01.017Z,100410.69
2023-02-01T15:55:44.620Z,100416.47
2023-02-01T15:58:20.695Z,100415.25
2023-02-01T16:00:52.209Z,100415.97
2023-02-01T16:03:43.113Z,100414.13
2023-02-01T16:06:27.858Z,100414.44
2023-02-01T16:09:01.911Z,100421.88
2023-02-01T16:11:32.301Z,100432.19
2023-02-01T16:14:01.984Z,100430.94
2023-02-01T16:16:31.661Z,100438.00
2023-02-01T16:19:01.332Z,100446.22
2023-02-01T16:21:29.712Z,100441.19
2023-02-01T16:23:58.111Z,100451.22
2023-02-01T16:26:26.415Z,100458.28
2023-02-01T16:28:54.649Z,100460.88
2023-02-01T16:31:29.859Z,100463.78
2023-02-01T16:33:58.288Z,100461.72
2023-02-01T16:36:29.195Z,100462.84
2023-02-01T16:38:57.835Z,100470.63
2023-02-01T16:41:26.823Z,100467.19
2023-02-01T16:43:57.044Z,100476.50
2023-02-01T16:46:28.708Z,100461.91
2023-02-01T16:48:59.611Z,100472.72
2023-02-01T16:51:33.455Z,100466.47
2023-02-01T16:54:01.943Z,100472.16
2023-02-01T16:56:33.460Z,100477.47
2023-02-01T16:59:02.216Z,100478.00
2023-02-01T17:01:30.826Z,100471.66
2023-02-01T17:03:58.999Z,100478.63
2023-02-01T17:06:30.099Z,100483.19
2023-02-01T17:09:00.684Z,100492.72
2023-02-01T17:11:30.806Z,100490.50
2023-02-01T17:14:03.001Z,100494.06
2023-02-01T17:16:34.039Z,100495.09
2023-02-01T17:19:07.816Z,100487.84
2023-02-01T17:21:45.560Z,100477.47
2023-02-01T17:24:16.230Z,100492.28
2023-02-01T17:26:45.854Z,100500.88
2023-02-01T17:29:15.041Z,100496.31
2023-02-01T17:31:46.978Z,100494.38
2023-02-01T17:34:17.345Z,100499.84
2023-02-01T17:36:48.564Z,100485.91
2023-02-01T17:39:32.026Z,100496.84
2023-02-01T17:42:02.221Z,100498.03
2023-02-01T17:44:30.423Z,100494.81
2023-02-01T17:46:59.662Z,100490.88
2023-02-01T17:49:29.415Z,100490.22
2023-02-01T17:51:59.351Z,100490.88
2023-02-01T17:54:27.605Z,100500.59
2023-02-01T17:56:57.104Z,100496.84
2023-02-01T17:59:25.510Z,100502.16
2023-02-01T18:02:00.784Z,100500.28
2023-02-01T18:04:29.118Z,100505.25
2023-02-01T18:06:58.969Z,100479.31
2023-02-01T18:09:27.100Z,100501.72
2023-02-01T18:11:55.857Z,100501.41
2023-02-01T18:14:24.037Z,100511.88
2023-02-01T18:16:53.743Z,100514.28
2023-02-01T18:19:22.527Z,100513.16
2023-02-01T18:21:53.240Z,100500.06
2023-02-01T18:24:23.789Z,100517.28
2023-02-01T18:26:52.314Z,100506.50
2023-02-01T18:29:20.858Z,100520.72
2023-02-01T18:31:50.833Z,100516.25
2023-02-01T18:34:22.483Z,100525.47
2023-02-01T18:36:50.922Z,100516.97
2023-02-01T18:39:19.597Z,100512.81
2023-02-01T18:41:51.736Z,100508.56
2023-02-01T18:44:20.125Z,100512.72
2023-02-01T18:46:48.361Z,100506.09
2023-02-01T18:49:18.668Z,100502.22
2023-02-01T18:51:47.472Z,100508.47
2023-02-01T18:54:15.880Z,100504.50
2023-02-01T18:56:44.253Z,100504.88
2023-02-01T18:59:14.091Z,100509.50
2023-02-01T19:01:44.844Z,100510.28
2023-02-01T19:04:23.197Z,100519.75
2023-02-01T19:06:52.107Z,100516.94
2023-02-01T19:09:20.803Z,100509.81
2023-02-01T19:11:49.059Z,100506.28
2023-02-01T19:14:18.870Z,100511.28
2023-02-01T19:16:47.739Z,100504.09
2023-02-01T19:19:15.892Z,100518.50
2023-02-01T19:21:44.122Z,100515.81
2023-02-01T19:24:12.290Z,100499.34
2023-02-01T19:26:43.679Z,100509.78
2023-02-01T19:29:12.489Z,100509.78
2023-02-01T19:31:44.322Z,100497.75
2023-02-01T19:34:13.545Z,100480.56
2023-02-01T19:36:43.700Z,100502.72
2023-02-01T19:39:11.977Z,100494.72
2023-02-01T19:41:40.225Z,100493.81
2023-02-01T19:44:08.665Z,100492.75
2023-02-01T19:46:37.119Z,100492.03
2023-02-01T19:49:07.859Z,100484.69
2023-02-01T19:51:37.692Z,100487.91
2023-02-01T19:54:06.459Z,100502.19
2023-02-01T19:56:34.943Z,100501.16
2023-02-01T19:59:03.506Z,100502.91
2023-02-01T20:01:31.238Z,100503.78
2023-02-01T20:04:01.832Z,100500.69
2023-02-01T20:06:33.200Z,100509.50
2023-02-01T20:09:01.752Z,100491.78
2023-02-01T20:11:29.931Z,100505.38
2023-02-01T20:13:59.955Z,100494.47
2023-02-01T20:16:28.831Z,100499.22
2023-02-01T20:18:57.521Z,100489.69
2023-02-01T20:21:25.915Z,100497.59
2023-02-01T20:23:55.535Z,100498.19
2023-02-01T20:26:25.296Z,100495.31
2023-02-01T20:28:54.720Z,100503.91
2023-02-01T20:31:25.753Z,100497.03
2023-02-01T20:33:54.040Z,100496.53
2023-02-01T20:36:22.282Z,100484.03
2023-02-01T20:38:50.652Z,100480.94
2023-02-01T20:41:20.763Z,100482.72
2023-02-01T20:43:49.565Z,100484.34
2023-02-01T20:46:18.613Z,100498.91
2023-02-01T20:48:48.884Z,100488.75
2023-02-01T20:51:20.655Z,100501.59
2023-02-01T20:53:52.462Z,100512.09
2023-02-01T20:56:23.501Z,100515.63
2023-02-01T20:58:51.997Z,100517.06
2023-02-01T21:01:20.208Z,100515.63
2023-02-01T21:03:48.448Z,100523.31
2023-02-01T21:06:16.666Z,100525.06
2023-02-01T21:08:44.865Z,100511.16
2023-02-01T21:11:15.805Z,100508.34
2023-02-01T21:13:51.336Z,100522.25
2023-02-01T21:16:22.836Z,100511.28
2023-02-01T21:18:53.478Z,100513.03
2023-02-01T21:21:22.388Z,100525.69
2023-02-01T21:23:52.743Z,100518.50
2023-02-01T21:26:24.488Z,100524.31
2023-02-01T21:28:56.608Z,100520.16
2023-02-01T21:31:25.623Z,100532.03
2023-02-01T21:33:54.296Z,100534.19
2023-02-01T21:36:22.579Z,100530.75
2023-02-01T21:38:53.240Z,100527.66
2023-02-01T21:41:41.527Z,100530.03
2023-02-01T21:44:14.557Z,100529.72
2023-02-01T21:46:43.483Z,100536.78
2023-02-01T21:49:12.105Z,100541.63
2023-02-01T21:51:41.015Z,100542.28
2023-02-01T21:54:11.856Z,100551.91
2023-02-01T21:56:40.927Z,100540.28
2023-02-01T21:59:11.308Z,100545.25
2023-02-01T22:01:40.494Z,100554.19
2023-02-01T22:04:10.074Z,100553.59
2023-02-01T22:06:42.324Z,100553.59
2023-02-01T22:09:18.730Z,100543.22
2023-02-01T22:11:47.614Z,100555.63
2023-02-01T22:14:18.293Z,100547.16
2023-02-01T22:16:47.632Z,100553.47
2023-02-01T22:19:16.803Z,100559.16
2023-02-01T22:21:47.554Z,100558.22
2023-02-01T22:24:18.074Z,100548.28
2023-02-01T22:26:46.594Z,100558.56
2023-02-01T22:29:17.169Z,100560.41
2023-02-01T22:31:45.749Z,100563.53
2023-02-01T22:34:15.494Z,100568.31
2023-02-01T22:36:44.112Z,100564.69
2023-02-01T22:39:12.729Z,100567.28
2023-02-01T22:41:41.147Z,100570.16
2023-02-01T22:44:09.658Z,100572.88
2023-02-01T22:46:40.062Z,100573.50
2023-02-01T22:49:08.370Z,100563.97
2023-02-01T22:51:36.661Z,100581.78
2023-02-01T22:54:05.099Z,100584.59
2023-02-01T22:56:36.464Z,100581.91
2023-02-01T22:59:07.304Z,100584.50
2023-02-01T23:01:36.324Z,100587.91
2023-02-01T23:04:08.264Z,100584.38
2023-02-01T23:06:36.729Z,100586.16
2023-02-01T23:09:11.151Z,100590.91
2023-02-01T23:11:40.509Z,100590.28
2023-02-01T23:14:09.749Z,100584.81
2023-02-01T23:16:38.085Z,100584.69
2023-02-01T23:19:07.723Z,100584.19
2023-02-01T23:21:36.177Z,100587.41
2023-02-01T23:24:07.681Z,100588.22
2023-02-01T23:26:36.417Z,100587.69
2023-02-01T23:29:05.394Z,100587.19
2023-02-01T23:31:36.044Z,100580.88
2023-02-01T23:34:05.240Z,100592.09
2023-02-01T23:36:35.294Z,100583.47
2023-02-01T23:39:03.837Z,100593.94
2023-02-01T23:41:32.836Z,100603.88
2023-02-01T23:44:01.151Z,100592.78
2023-02-01T23:46:33.653Z,100597.56
2023-02-01T23:49:03.278Z,100595.91
2023-02-01T23:51:32.347Z,100595.06
2023-02-01T23:54:02.454Z,100600.03
2023-02-01T23:56:33.262Z,100601.91
2023-02-01T23:59:03.054Z,100602.63
